Time;durP1;ratioP1;P1;durP2;ratioP2;P2;SDS_P1;SDS_P2;PMS_P1;PMS_P2;Temp;Humidity;BMP_temperature;BMP_pressure;BME280_temperature;BME280_humidity;BME280_pressure;Samples;Min_cycle;Max_cycle;Signal;HPM_P1;HPM_P2
2022/05/10 00:01:41;;;;;;;6.00;3.03;;;;;;;12.48;65.45;101327.34;4937358;29;20047;-81
2022/05/10 00:04:09;;;;;;;15.98;4.05;;;;;;;12.48;64.61;101326.47;4936993;29;20079;-81
2022/05/10 00:06:44;;;;;;;7.80;3.67;;;;;;;12.46;64.71;101331.16;4937012;29;20059;-81
2022/05/10 00:09:11;;;;;;;5.88;3.53;;;;;;;12.40;64.65;101321.69;4936696;29;20098;-81
2022/05/10 00:11:37;;;;;;;5.45;3.55;;;;;;;12.43;63.78;101326.00;4936663;29;20034;-81
2022/05/10 00:14:03;;;;;;;8.57;3.88;;;;;;;12.43;63.40;101326.00;4936899;29;20398;-81
2022/05/10 00:16:28;;;;;;;7.40;3.30;;;;;;;12.42;63.77;101324.25;4937432;29;20035;-81
2022/05/10 00:18:54;;;;;;;9.75;3.70;;;;;;;12.31;63.29;101314.31;4949001;29;20040;-80
2022/05/10 00:21:23;;;;;;;11.73;3.50;;;;;;;12.28;63.84;101314.56;4946585;29;20032;-80
2022/05/10 00:23:49;;;;;;;6.47;3.33;;;;;;;12.20;63.63;101318.84;4936865;29;20055;-78
2022/05/10 00:26:14;;;;;;;11.60;3.75;;;;;;;12.02;62.56;101307.59;4936361;29;20455;-81
2022/05/10 00:28:40;;;;;;;8.32;3.88;;;;;;;12.11;63.02;101316.84;4936868;29;20117;-78
2022/05/10 00:31:08;;;;;;;9.48;4.00;;;;;;;12.11;63.38;101317.69;4936256;29;20027;-81
2022/05/10 00:33:33;;;;;;;10.93;3.50;;;;;;;12.10;62.92;101310.59;4936321;29;20035;-80
2022/05/10 00:35:59;;;;;;;7.18;3.75;;;;;;;12.10;61.65;101304.34;4936430;29;20039;-81
2022/05/10 00:38:31;;;;;;;10.23;3.97;;;;;;;12.08;60.35;101300.91;4935770;29;20542;-81
2022/05/10 00:41:02;;;;;;;;;;;;;;;12.00;60.56;101299.66;4936585;29;20023;-78
2022/05/10 00:43:32;;;;;;;10.63;3.40;;;;;;;11.97;59.89;101290.94;4936290;29;19918;-80
2022/05/10 00:46:29;;;;;;;8.32;3.83;;;;;;;11.92;60.46;101293.13;4936295;29;20031;-80
2022/05/10 00:49:05;;;;;;;5.07;3.50;;;;;;;11.97;60.75;101294.50;4935899;29;20035;-80
2022/05/10 00:51:50;;;;;;;9.75;3.28;;;;;;;11.92;60.56;101296.69;4936069;29;20031;-80
2022/05/10 00:54:58;;;;;;;9.35;3.70;;;;;;;11.86;60.64;101294.44;4935988;29;20477;-80
2022/05/10 00:57:53;;;;;;;7.30;3.13;;;;;;;11.84;60.57;101291.00;4934961;29;20082;-80
2022/05/10 01:00:25;;;;;;;11.48;4.15;;;;;;;11.80;60.69;101292.19;4935271;29;20040;-80
2022/05/10 01:03:09;;;;;;;18.97;4.53;;;;;;;11.75;59.82;101286.31;4936326;29;20028;-80
2022/05/10 01:05:52;;;;;;;9.30;3.17;;;;;;;11.70;59.98;101275.03;4936228;29;20750;-81
2022/05/10 01:08:24;;;;;;;9.27;4.78;;;;;;;11.67;60.12;101291.41;4936173;29;20028;-81
2022/05/10 01:11:04;;;;;;;11.57;4.30;;;;;;;11.61;59.77;101289.16;4936048;29;20039;-81
2022/05/10 01:13:44;;;;;;;11.55;3.60;;;;;;;11.66;60.33;101289.66;4950683;29;20031;-80
2022/05/10 01:16:13;;;;;;;9.02;3.85;;;;;;;11.68;60.15;101287.72;4935752;29;20446;-78
2022/05/10 01:18:40;;;;;;;7.65;4.05;;;;;;;11.72;59.77;101278.47;4935776;29;20035;-81
2022/05/10 01:21:12;;;;;;;10.40;4.03;;;;;;;11.71;59.56;101286.69;4935789;29;20545;-80
2022/05/10 01:24:02;;;;;;;11.85;4.25;;;;;;;11.64;58.73;101285.38;4935767;29;20035;-80
2022/05/10 01:26:52;;;;;;;9.13;3.55;;;;;;;11.58;58.79;101275.94;4934447;29;20039;-79
2022/05/10 01:29:34;;;;;;;13.18;4.65;;;;;;;11.60;58.79;101279.34;4935759;29;20036;-80
2022/05/10 01:34:54;;;;;;;14.65;5.95;;;;;;;11.65;59.39;101287.09;4935989;29;20042;-80
2022/05/10 01:37:24;;;;;;;15.13;5.32;;;;;;;11.66;59.94;101283.41;4935564;29;20114;-80
2022/05/10 01:40:00;;;;;;;18.55;6.13;;;;;;;11.69;61.11;101283.19;4935817;29;20486;-80
2022/05/10 01:42:33;;;;;;;17.00;7.35;;;;;;;11.77;61.61;101278.97;4935966;29;20027;-80
2022/05/10 01:45:05;;;;;;;17.55;7.25;;;;;;;11.82;62.54;101275.94;4935861;29;20031;-80
2022/05/10 01:47:43;;;;;;;15.95;7.30;;;;;;;11.79;63.46;101270.78;4935332;29;20062;-80
2022/05/10 01:50:17;;;;;;;18.02;7.35;;;;;;;11.77;63.77;101278.13;4937609;29;20036;-80
2022/05/10 01:53:17;;;;;;;22.38;7.57;;;;;;;11.76;64.10;101271.88;4944327;29;20036;-80
2022/05/10 01:55:52;;;;;;;9.60;5.93;;;;;;;11.81;62.54;101283.16;4960468;29;20028;-80
2022/05/10 01:58:25;;;;;;;13.55;5.15;;;;;;;11.81;61.58;101271.50;4940843;29;20078;-80
2022/05/10 02:01:00;;;;;;;13.20;5.80;;;;;;;11.78;60.58;101264.53;4939461;29;20039;-80
2022/05/10 02:03:42;;;;;;;12.18;4.53;;;;;;;11.79;60.40;101273.47;4939378;29;20832;-80
2022/05/10 02:06:12;;;;;;;7.78;4.15;;;;;;;11.71;59.52;101263.25;4939828;29;20086;-80
2022/05/10 02:09:13;;;;;;;9.65;4.43;;;;;;;11.76;58.58;101271.00;4939339;29;20059;-80
2022/05/10 02:11:41;;;;;;;15.20;4.40;;;;;;;11.77;58.28;101265.47;4953265;29;20093;-80
2022/05/10 02:14:19;;;;;;;10.80;4.50;;;;;;;11.75;58.80;101267.44;4939048;29;20032;-79
2022/05/10 02:17:11;;;;;;;12.43;4.75;;;;;;;11.64;59.30;101264.69;4939137;29;20055;-79
2022/05/10 02:19:55;;;;;;;15.60;4.13;;;;;;;11.67;59.04;101259.06;4939231;29;20020;-79
2022/05/10 02:22:30;;;;;;;17.17;5.70;;;;;;;11.62;60.16;101255.00;4939111;29;20032;-79
2022/05/10 02:24:59;;;;;;;15.65;6.43;;;;;;;11.65;60.70;101255.59;4937691;29;20496;-78
2022/05/10 02:27:32;;;;;;;10.63;4.45;;;;;;;11.63;61.71;101252.19;4939264;29;20030;-80
2022/05/10 02:30:01;;;;;;;16.20;5.50;;;;;;;11.59;60.50;101245.28;4954678;29;20024;-80
2022/05/10 02:35:17;;;;;;;11.77;4.13;;;;;;;11.57;60.71;101252.66;4938843;29;20042;-79
2022/05/10 02:37:42;;;;;;;10.00;3.50;;;;;;;11.60;59.82;101252.41;4939055;29;20466;-79
2022/05/10 02:40:09;;;;;;;9.63;3.78;;;;;;;11.64;58.90;101250.34;4938600;29;20034;-79
2022/05/10 02:42:35;;;;;;;12.38;3.90;;;;;;;11.62;58.46;101255.00;4938966;29;20095;-79
2022/05/10 02:45:02;;;;;;;7.43;3.35;;;;;;;11.61;58.64;101258.66;4939045;29;20142;-79
2022/05/10 02:47:32;;;;;;;8.93;2.95;;;;;;;11.47;58.64;101252.47;4938976;29;20582;-79
2022/05/10 02:49:58;;;;;;;7.95;3.13;;;;;;;11.56;57.98;101261.69;4947608;29;20051;-79
2022/05/10 02:52:23;;;;;;;6.05;3.67;;;;;;;11.62;58.26;101261.22;4949583;29;20386;-80
2022/05/10 02:55:00;;;;;;;7.32;3.42;;;;;;;11.63;58.03;101262.97;4950283;29;20043;-79
2022/05/10 02:57:28;;;;;;;9.23;4.43;;;;;;;11.62;58.86;101260.41;4937993;29;20055;-79
2022/05/10 02:59:59;;;;;;;7.32;4.00;;;;;;;11.62;58.76;101266.63;4938666;29;20028;-78
2022/05/10 03:02:31;;;;;;;11.75;4.88;;;;;;;11.65;59.49;101263.69;4937464;29;20032;-80
2022/05/10 03:04:57;;;;;;;;;;;;;;;11.56;59.76;101264.38;4938327;29;20039;-79
2022/05/10 03:07:27;;;;;;;13.32;5.85;;;;;;;11.53;59.46;101264.63;4938262;29;20370;-81
2022/05/10 03:09:52;;;;;;;27.10;9.77;;;;;;;11.58;59.77;101265.16;4937982;29;20090;-81
2022/05/10 03:12:18;;;;;;;17.25;10.85;;;;;;;11.65;59.14;101263.69;4936687;29;20035;-81
2022/05/10 03:14:44;;;;;;;23.42;12.00;;;;;;;11.63;59.18;101256.69;4937682;29;20038;-81
2022/05/10 03:17:10;;;;;;;22.38;9.23;;;;;;;11.69;59.36;101284.03;4937553;29;20106;-80
2022/05/10 03:19:40;;;;;;;20.50;7.60;;;;;;;11.74;59.55;101276.50;4937951;29;20211;-80
2022/05/10 03:22:06;;;;;;;14.05;6.53;;;;;;;11.69;59.21;101264.31;4937827;29;20024;-81
2022/05/10 03:24:32;;;;;;;16.52;7.75;;;;;;;11.71;59.86;101270.50;4938017;29;20030;-81
2022/05/10 03:26:59;;;;;;;20.88;8.35;;;;;;;11.71;59.91;101271.34;4938040;29;20459;-80
2022/05/10 03:29:25;;;;;;;17.05;9.13;;;;;;;11.79;59.86;101277.03;4938090;29;20031;-80
2022/05/10 03:31:54;;;;;;;22.42;8.77;;;;;;;11.78;60.23;101282.53;4960582;29;20031;-79
2022/05/10 03:37:04;;;;;;;20.45;9.65;;;;;;;11.59;59.42;101303.75;4937275;29;20493;-78
2022/05/10 03:39:30;;;;;;;22.00;8.40;;;;;;;11.62;60.03;101298.94;4951825;29;20024;-79
2022/05/10 03:41:55;;;;;;;32.28;11.75;;;;;;;11.59;60.36;101283.00;4937191;29;20043;-81
2022/05/10 03:44:21;;;;;;;31.80;11.10;;;;;;;11.60;60.63;101290.13;4935998;29;20111;-82
2022/05/10 03:46:47;;;;;;;19.20;8.65;;;;;;;11.66;60.70;101299.59;4937189;29;20579;-82
2022/05/10 03:49:13;;;;;;;15.80;7.60;;;;;;;11.69;59.95;101305.59;4937886;29;20090;-82
2022/05/10 03:51:39;;;;;;;15.55;7.45;;;;;;;11.70;59.20;101301.97;4937927;29;20028;-82
2022/05/10 03:54:04;;;;;;;37.15;10.70;;;;;;;11.77;59.49;101305.06;4936987;29;20032;-78
2022/05/10 03:56:30;;;;;;;26.42;8.30;;;;;;;11.60;60.41;101308.13;4936945;29;20110;-80
2022/05/10 03:58:57;;;;;;;26.98;10.77;;;;;;;11.55;61.73;101319.25;4936643;29;20055;-77
2022/05/10 04:01:22;;;;;;;22.35;10.30;;;;;;;11.56;62.82;101315.56;4936689;29;20067;-79
2022/05/10 04:03:48;;;;;;;42.70;13.00;;;;;;;11.61;62.56;101312.56;4936785;29;20470;-78
2022/05/10 04:06:14;;;;;;;31.33;12.38;;;;;;;11.68;62.85;101313.81;4935361;29;20042;-78
2022/05/10 04:08:39;;;;;;;27.83;10.75;;;;;;;11.73;62.55;101296.34;4936839;29;20038;-78
2022/05/10 04:11:08;;;;;;;28.52;11.90;;;;;;;11.84;62.55;101309.88;4936724;29;20486;-78
2022/05/10 04:13:33;;;;;;;27.42;11.00;;;;;;;11.88;62.97;101311.38;4936185;29;20111;-78
2022/05/10 04:15:59;;;;;;;42.65;12.77;;;;;;;11.95;62.21;101312.63;4935984;29;20115;-78
2022/05/10 04:18:25;;;;;;;32.25;12.32;;;;;;;11.97;62.74;101310.66;4936761;29;20031;-78
2022/05/10 04:20:51;;;;;;;35.55;11.82;;;;;;;11.96;62.32;101317.03;4936526;29;20038;-80
2022/05/10 04:23:17;;;;;;;67.07;14.98;;;;;;;12.01;62.31;101311.28;4936640;29;20020;-76
2022/05/10 04:25:43;;;;;;;26.95;11.30;;;;;;;12.00;62.65;101317.66;4936536;29;20024;-79
2022/05/10 04:28:08;;;;;;;35.83;11.27;;;;;;;12.07;62.43;101315.34;4936165;29;20035;-78
2022/05/10 04:30:35;;;;;;;43.13;12.23;;;;;;;12.16;62.09;101317.34;4936124;29;20070;-77
2022/05/10 04:33:00;;;;;;;46.13;11.18;;;;;;;12.18;62.63;101323.47;4936163;29;20075;-77
2022/05/10 04:35:26;;;;;;;27.70;11.93;;;;;;;12.23;62.37;101326.69;4936601;29;20039;-77
2022/05/10 04:37:51;;;;;;;42.85;12.65;;;;;;;12.28;62.52;101329.88;4938830;29;20097;-76
2022/05/10 04:43:01;;;;;;;38.72;18.73;;;;;;;12.51;61.85;101342.44;4936143;29;20071;-78
2022/05/10 04:45:27;;;;;;;61.03;22.27;;;;;;;12.56;62.13;101318.66;4950888;29;20023;-81
2022/05/10 04:47:52;;;;;;;58.63;26.40;;;;;;;12.58;61.98;101332.88;4936649;29;20418;-80
2022/05/10 04:50:18;;;;;;;43.47;28.40;;;;;;;12.58;62.22;101311.28;4939994;29;20028;-82
2022/05/10 04:52:43;;;;;;;57.72;30.00;;;;;;;12.79;62.13;101320.38;4935496;29;20159;-80
2022/05/10 04:55:10;;;;;;;65.43;33.83;;;;;;;12.90;62.39;101324.94;4936000;29;20034;-82
2022/05/10 04:57:37;;;;;;;86.82;41.17;;;;;;;12.97;62.34;101326.16;4935332;29;20064;-83
2022/05/10 05:00:05;;;;;;;94.72;46.20;;;;;;;13.09;62.64;101334.16;4936229;29;20076;-81
2022/05/10 05:02:30;;;;;;;103.22;48.17;;;;;;;13.20;62.49;101324.34;4936309;29;20062;-79
2022/05/10 05:04:56;;;;;;;86.07;43.13;;;;;;;13.29;62.55;101318.19;4936382;29;20494;-81
2022/05/10 05:07:21;;;;;;;87.82;42.72;;;;;;;13.39;62.24;101324.56;4939737;29;20032;-81
2022/05/10 05:09:48;;;;;;;96.28;44.80;;;;;;;13.45;61.53;101329.47;4950326;29;20035;-81
2022/05/10 05:12:13;;;;;;;89.80;50.17;;;;;;;13.52;61.22;101326.13;4935125;29;20034;-82
2022/05/10 05:14:39;;;;;;;98.75;49.85;;;;;;;13.63;61.17;101334.22;4934964;29;20023;-80
2022/05/10 05:17:04;;;;;;;102.05;64.95;;;;;;;13.72;61.20;101323.63;4935072;29;20525;-80
2022/05/10 05:19:30;;;;;;;115.28;66.15;;;;;;;13.81;61.00;101329.13;4935161;29;20020;-81
2022/05/10 05:21:55;;;;;;;115.55;70.63;;;;;;;13.90;60.68;101331.03;4934735;29;20031;-79
2022/05/10 05:24:21;;;;;;;154.15;79.80;;;;;;;14.07;60.71;101332.31;4934646;29;20491;-81
2022/05/10 05:26:47;;;;;;;142.48;83.25;;;;;;;14.16;61.06;101337.78;4934666;29;20391;-80
2022/05/10 05:29:13;;;;;;;132.40;84.68;;;;;;;14.28;61.13;101345.88;4935029;29;20046;-80
2022/05/10 05:31:40;;;;;;;125.13;76.53;;;;;;;14.40;60.53;101347.56;4935084;29;20550;-79
2022/05/10 05:34:06;;;;;;;137.13;73.70;;;;;;;14.46;60.29;101338.91;4934544;29;20407;-81
2022/05/10 05:36:31;;;;;;;116.05;68.72;;;;;;;14.53;59.87;101349.06;4934863;29;20030;-81
2022/05/10 05:38:57;;;;;;;110.20;62.03;;;;;;;14.63;59.74;101343.72;4934880;29;20023;-80
2022/05/10 05:41:22;;;;;;;115.18;61.33;;;;;;;14.74;59.45;101340.91;4935014;29;20030;-81
2022/05/10 05:43:48;;;;;;;95.13;63.40;;;;;;;14.84;59.41;101344.53;4934636;29;20023;-81
2022/05/10 05:46:13;;;;;;;111.85;63.72;;;;;;;14.78;59.04;101347.78;4934468;29;20051;-81
2022/05/10 05:48:39;;;;;;;102.40;61.08;;;;;;;14.79;59.05;101346.81;4934405;29;20019;-81
2022/05/10 05:51:05;;;;;;;100.50;57.15;;;;;;;14.92;58.70;101342.00;4934602;29;20055;-81
2022/05/10 05:53:31;;;;;;;104.05;59.70;;;;;;;14.94;58.30;101342.75;4934829;29;20057;-79
2022/05/10 05:56:06;;;;;;;110.60;58.13;;;;;;;15.06;58.04;101338.97;4935094;29;20545;-79
2022/05/10 05:58:31;;;;;;;96.28;55.25;;;;;;;15.14;57.84;101347.25;4934541;29;20051;-82
2022/05/10 06:00:57;;;;;;;95.88;50.58;;;;;;;15.21;57.37;101353.84;4934574;29;20493;-79
2022/05/10 06:03:22;;;;;;;92.63;50.03;;;;;;;15.37;55.80;101347.06;4934578;29;20119;-79
2022/05/10 06:05:49;;;;;;;72.75;43.58;;;;;;;15.37;55.96;101344.34;4949477;29;20032;-78
2022/05/10 06:08:16;;;;;;;76.93;43.20;;;;;;;15.41;54.74;101348.50;4934861;29;20622;-80
2022/05/10 06:10:42;;;;;;;65.28;35.47;;;;;;;15.47;54.30;101351.53;4934458;29;20106;-81
2022/05/10 06:13:09;;;;;;;67.07;33.97;;;;;;;15.62;53.48;101352.88;4934541;29;20020;-79
2022/05/10 06:15:36;;;;;;;67.28;34.17;;;;;;;15.74;53.27;101356.31;4934533;29;20086;-79
2022/05/10 06:18:04;;;;;;;41.75;22.55;;;;;;;15.84;51.98;101351.75;4934758;29;20094;-80
2022/05/10 06:20:30;;;;;;;40.75;22.05;;;;;;;15.93;51.38;101341.91;4934432;29;20028;-80
2022/05/10 06:22:55;;;;;;;32.60;19.00;;;;;;;16.02;49.97;101343.78;4934816;29;20486;-81
2022/05/10 06:25:23;;;;;;;33.20;15.93;;;;;;;16.16;48.88;101346.06;4934326;29;20047;-80
2022/05/10 06:27:51;;;;;;;26.08;11.57;;;;;;;16.24;47.44;101347.03;4934255;29;20038;-79
2022/05/10 06:30:19;;;;;;;26.92;10.85;;;;;;;16.36;47.20;101345.03;4934658;29;20031;-79
2022/05/10 06:32:46;;;;;;;27.38;10.65;;;;;;;16.47;45.44;101357.59;4934390;29;20491;-80
2022/05/10 06:35:12;;;;;;;30.00;12.80;;;;;;;16.58;44.95;101343.88;4934326;29;20032;-80
2022/05/10 06:40:22;;;;;;;21.80;12.20;;;;;;;16.63;44.27;101344.31;4938264;29;20061;-80
2022/05/10 06:42:47;;;;;;;31.17;15.00;;;;;;;16.73;44.15;101354.16;4938092;29;20059;-81
2022/05/10 06:45:18;;;;;;;31.65;13.18;;;;;;;16.70;43.95;101348.16;4941186;29;20075;-81
2022/05/10 06:47:48;;;;;;;39.13;13.02;;;;;;;16.74;43.52;101341.44;4938420;29;20034;-79
2022/05/10 06:50:17;;;;;;;31.60;10.77;;;;;;;16.80;43.11;101341.69;4937987;29;20098;-79
2022/05/10 06:52:43;;;;;;;38.42;12.45;;;;;;;16.92;42.65;101345.09;4936081;29;20111;-80
2022/05/10 06:55:09;;;;;;;19.42;11.23;;;;;;;16.95;42.32;101349.38;4937666;29;20031;-80
2022/05/10 06:57:35;;;;;;;24.42;13.20;;;;;;;17.10;42.67;101350.59;4937789;29;20052;-80
2022/05/10 07:00:00;;;;;;;38.20;19.25;;;;;;;17.02;45.59;101345.91;4937648;29;20043;-81
2022/05/10 07:02:26;;;;;;;31.55;17.10;;;;;;;16.95;45.55;101355.66;4937511;29;20031;-81
2022/05/10 07:04:53;;;;;;;39.42;18.17;;;;;;;17.11;46.33;101349.59;4937275;29;20024;-80
2022/05/10 07:07:18;;;;;;;30.08;15.27;;;;;;;17.18;45.86;101351.59;4937226;29;20181;-79
2022/05/10 07:09:44;;;;;;;35.03;16.55;;;;;;;17.21;45.31;101359.44;4937403;29;20051;-79
2022/05/10 07:12:10;;;;;;;20.35;8.80;;;;;;;17.03;40.37;101355.75;4937200;29;20028;-81
2022/05/10 07:14:36;;;;;;;19.60;11.32;;;;;;;17.11;42.47;101352.31;4937354;29;20074;-81
2022/05/10 07:17:01;;;;;;;26.55;11.43;;;;;;;17.10;43.19;101358.75;4937262;29;20102;-81
2022/05/10 07:19:27;;;;;;;33.55;13.50;;;;;;;17.06;43.75;101357.34;4937459;29;20094;-81
2022/05/10 07:21:52;;;;;;;30.17;13.68;;;;;;;17.05;44.58;101353.78;4937783;29;20501;-82
2022/05/10 07:24:19;;;;;;;30.85;9.50;;;;;;;17.08;41.88;101356.19;4937388;29;20019;-82
2022/05/10 07:26:48;;;;;;;29.58;11.88;;;;;;;17.23;43.53;101360.13;4937821;29;20034;-79
2022/05/10 07:29:14;;;;;;;25.60;9.38;;;;;;;17.32;43.54;101353.81;4937557;29;20102;-80
2022/05/10 07:31:40;;;;;;;22.83;8.02;;;;;;;17.32;42.31;101352.94;4937291;29;20024;-81
2022/05/10 07:34:06;;;;;;;27.48;7.75;;;;;;;17.38;43.12;101350.47;4937524;29;20032;-80
2022/05/10 07:36:34;;;;;;;20.83;6.53;;;;;;;17.56;42.71;101364.16;4937191;29;20035;-81
2022/05/10 07:39:02;;;;;;;13.50;5.07;;;;;;;17.57;41.34;101359.56;4937533;29;20086;-81
2022/05/10 07:41:27;;;;;;;25.58;5.03;;;;;;;17.65;40.36;101349.63;4937686;29;20038;-79
2022/05/10 07:43:53;;;;;;;14.15;4.82;;;;;;;17.73;40.41;101357.91;4939633;29;20020;-82
2022/05/10 07:46:19;;;;;;;22.08;4.63;;;;;;;17.77;40.05;101369.31;4935992;29;20027;-80
2022/05/10 07:48:45;;;;;;;10.95;4.40;;;;;;;17.78;40.65;101365.59;4936398;29;20119;-81
2022/05/10 07:51:10;;;;;;;21.58;4.97;;;;;;;17.78;42.06;101365.59;4940984;29;20020;-81
2022/05/10 07:53:37;;;;;;;7.80;4.05;;;;;;;17.79;41.68;101362.72;4938180;29;20035;-81
2022/05/10 07:56:03;;;;;;;6.60;4.18;;;;;;;17.91;40.49;101371.53;4937131;29;20063;-81
2022/05/10 07:58:30;;;;;;;16.27;4.60;;;;;;;17.97;40.49;101365.47;4937735;29;20044;-82
2022/05/10 08:00:56;;;;;;;21.38;5.18;;;;;;;17.80;41.88;101369.00;4939805;29;20040;-82
2022/05/10 08:03:24;;;;;;;19.83;5.57;;;;;;;17.63;42.43;101367.13;4936700;29;20106;-79
2022/05/10 08:05:51;;;;;;;18.40;4.88;;;;;;;17.71;42.06;101370.78;4937030;29;20118;-80
2022/05/10 08:08:20;;;;;;;22.95;5.18;;;;;;;17.80;41.58;101364.44;4935150;29;20038;-81
2022/05/10 08:10:47;;;;;;;13.68;5.03;;;;;;;17.71;42.76;101361.75;4936837;29;20035;-81
2022/05/10 08:13:15;;;;;;;21.45;4.40;;;;;;;17.59;42.17;101373.88;4936302;29;20056;-81
2022/05/10 08:15:40;;;;;;;12.88;5.22;;;;;;;17.41;43.41;101369.22;4936647;29;20027;-82
2022/05/10 08:18:07;;;;;;;144.07;13.07;;;;;;;17.38;44.11;101364.06;4937176;29;20040;-80
2022/05/10 08:20:32;;;;;;;23.75;7.00;;;;;;;17.49;46.08;101364.88;4944852;29;20371;-81
2022/05/10 08:22:58;;;;;;;13.05;5.30;;;;;;;17.39;45.87;101359.50;4939678;29;20114;-79
2022/05/10 08:25:24;;;;;;;14.73;5.32;;;;;;;17.65;44.90;101365.09;4936954;29;20031;-80
2022/05/10 08:27:50;;;;;;;17.70;5.88;;;;;;;17.70;45.10;101363.66;4936338;29;20038;-80
2022/05/10 08:30:15;;;;;;;21.13;5.78;;;;;;;17.84;45.64;101364.97;4951708;29;20044;-79
2022/05/10 08:32:42;;;;;;;14.18;4.72;;;;;;;17.82;43.46;101361.56;4936390;29;20430;-82
2022/05/10 08:35:08;;;;;;;13.23;5.68;;;;;;;17.99;43.97;101366.16;4936282;29;20078;-81
2022/05/10 08:37:37;;;;;;;16.10;4.22;;;;;;;18.21;44.42;101373.88;4936512;29;20478;-81
2022/05/10 08:40:22;;;;;;;22.75;4.22;;;;;;;18.42;44.38;101366.22;4935843;29;20106;-81
2022/05/10 08:42:51;;;;;;;8.65;3.92;;;;;;;18.47;43.92;101358.44;4936339;29;20039;-82
2022/05/10 08:45:18;;;;;;;7.97;3.70;;;;;;;18.51;42.71;101352.69;4950086;29;20103;-80
2022/05/10 08:47:46;;;;;;;9.52;3.45;;;;;;;18.70;42.00;101357.97;4946392;29;20103;-79
2022/05/10 08:50:13;;;;;;;10.18;3.47;;;;;;;18.68;40.76;101360.00;4943486;29;20031;-80
2022/05/10 08:52:43;;;;;;;8.38;3.50;;;;;;;18.77;41.11;101359.91;4935604;29;20023;-82
2022/05/10 08:55:10;;;;;;;13.80;3.72;;;;;;;18.89;41.62;101357.75;4936081;29;20099;-81
2022/05/10 08:58:02;;;;;;;25.20;3.97;;;;;;;19.04;40.67;101358.88;4936357;29;20090;-81
2022/05/10 09:00:41;;;;;;;9.48;2.63;;;;;;;18.87;40.66;101355.19;4934733;29;20024;-81
2022/05/10 09:03:17;;;;;;;10.48;2.78;;;;;;;18.61;38.59;101350.75;4935460;29;20075;-79
2022/05/10 09:05:44;;;;;;;22.33;3.03;;;;;;;18.79;41.38;101357.00;4935735;29;20058;-80
2022/05/10 09:08:44;;;;;;;8.48;2.55;;;;;;;18.92;41.27;101346.53;4935537;29;20023;-81
2022/05/10 09:11:14;;;;;;;8.80;2.60;;;;;;;19.05;40.79;101368.75;4935317;29;20030;-79
2022/05/10 09:13:41;;;;;;;14.75;2.85;;;;;;;18.85;41.10;101361.81;4935304;29;20023;-80
2022/05/10 09:16:11;;;;;;;7.13;2.75;;;;;;;18.80;41.04;101364.16;4935172;29;20095;-80
2022/05/10 09:18:39;;;;;;;11.98;2.42;;;;;;;18.80;41.38;101348.69;4935450;29;20115;-81
2022/05/10 09:21:27;;;;;;;14.88;2.40;;;;;;;18.98;41.08;101359.50;4935511;29;20078;-80
2022/05/10 09:24:19;;;;;;;10.13;3.03;;;;;;;18.85;43.62;101356.34;4935579;29;20024;-79
2022/05/10 09:26:46;;;;;;;;;;;;;;;18.86;41.39;101361.66;4935891;29;20038;-79
2022/05/10 09:29:25;;;;;;;6.18;2.35;;;;;;;18.95;41.60;101362.56;4934952;29;19915;-79
2022/05/10 09:34:46;;;;;;;9.38;2.08;;;;;;;18.95;42.06;101366.16;4934716;29;20038;-79
2022/05/10 09:37:34;;;;;;;16.98;2.63;;;;;;;18.89;41.58;101365.94;4935118;29;20144;-79
2022/05/10 09:40:11;;;;;;;11.48;2.67;;;;;;;18.93;40.96;101353.66;4935131;29;20055;-79
2022/05/10 09:42:43;;;;;;;7.85;2.80;;;;;;;18.91;40.24;101356.56;4934869;29;20035;-80
2022/05/10 09:45:25;;;;;;;9.88;2.75;;;;;;;18.93;40.80;101359.13;4934930;29;20047;-79
2022/05/10 09:48:00;;;;;;;9.65;2.40;;;;;;;18.93;40.46;101359.97;4935218;29;20209;-82
2022/05/10 09:50:30;;;;;;;6.90;2.78;;;;;;;18.56;38.81;101358.53;4933877;29;20036;-81
2022/05/10 09:53:18;;;;;;;10.30;2.42;;;;;;;18.57;38.81;101362.97;4934620;29;20050;-80
2022/05/10 09:55:53;;;;;;;8.38;2.13;;;;;;;18.67;40.57;101363.72;4939709;29;20012;-80
2022/05/10 09:58:26;;;;;;;6.20;2.33;;;;;;;18.59;40.79;101350.06;4945116;29;20051;-80
2022/05/10 10:00:56;;;;;;;8.70;2.95;;;;;;;18.68;41.56;101357.28;4935241;29;20027;-79
2022/05/10 10:03:29;;;;;;;8.00;2.92;;;;;;;18.76;39.85;101357.31;4934932;29;20028;-80
2022/05/10 10:06:11;;;;;;;10.10;2.70;;;;;;;18.77;38.56;101359.03;4939877;29;20118;-80
2022/05/10 10:08:48;;;;;;;8.45;3.05;;;;;;;18.78;38.15;101363.44;4934883;29;20115;-81
2022/05/10 10:11:34;;;;;;;10.65;2.47;;;;;;;18.69;38.52;101356.25;4936512;29;20035;-80
2022/05/10 10:14:06;;;;;;;11.95;3.42;;;;;;;18.90;39.18;101354.00;4938384;29;20086;-80
2022/05/10 10:16:49;;;;;;;16.52;2.60;;;;;;;19.21;40.17;101352.47;4938479;29;20027;-81
2022/05/10 10:19:36;;;;;;;8.38;2.17;;;;;;;19.18;37.07;101352.81;4939053;29;20115;-80
2022/05/10 10:22:17;;;;;;;8.93;2.20;;;;;;;18.99;35.07;101347.56;4938302;29;20029;-80
2022/05/10 10:24:49;;;;;;;13.93;2.25;;;;;;;18.99;37.52;101337.53;4940546;29;20051;-80
2022/05/10 10:27:44;;;;;;;22.92;2.97;;;;;;;19.23;40.28;101342.28;4940146;29;20020;-80
2022/05/10 10:30:13;;;;;;;11.20;3.10;;;;;;;19.35;39.84;101338.25;4938712;29;20513;-80
2022/05/10 10:32:51;;;;;;;7.03;2.55;;;;;;;19.49;38.90;101337.63;4938219;29;20020;-80
2022/05/10 10:35:34;;;;;;;17.33;3.10;;;;;;;19.38;36.53;101334.31;4938491;29;20028;-80
2022/05/10 10:38:22;;;;;;;9.80;2.67;;;;;;;19.31;37.26;101335.97;4938262;29;20035;-80
2022/05/10 10:41:13;;;;;;;11.98;2.75;;;;;;;19.44;35.54;101330.97;4938339;29;20413;-80
2022/05/10 10:43:46;;;;;;;15.65;3.67;;;;;;;19.63;37.35;101333.38;4938132;29;20034;-80
2022/05/10 10:46:24;;;;;;;10.70;2.20;;;;;;;19.65;37.85;101330.50;4937759;29;20032;-80
2022/05/10 10:49:05;;;;;;;12.40;2.47;;;;;;;19.61;35.20;101320.94;4938021;29;20506;-81
2022/05/10 10:51:33;;;;;;;7.05;1.75;;;;;;;19.67;35.51;101331.19;4943088;29;20031;-80
2022/05/10 10:54:00;;;;;;;11.65;2.63;;;;;;;19.81;34.61;101334.16;4939543;29;20106;-80
2022/05/10 10:56:32;;;;;;;6.90;2.00;;;;;;;19.91;36.78;101328.50;4937823;29;20142;-80
2022/05/10 10:59:19;;;;;;;32.50;3.00;;;;;;;19.93;36.42;101321.03;4937578;29;20051;-81
2022/05/10 11:01:58;;;;;;;19.30;3.03;;;;;;;19.98;34.73;101313.16;4937625;29;20465;-79
2022/05/10 11:04:29;;;;;;;10.52;2.47;;;;;;;20.02;34.25;101311.81;4937581;29;20042;-81
2022/05/10 11:06:55;;;;;;;18.13;1.85;;;;;;;19.73;31.74;101308.69;4937873;29;20035;-79
2022/05/10 11:09:58;;;;;;;5.70;2.03;;;;;;;19.46;32.92;101307.09;4937759;29;20098;-80
2022/05/10 11:12:38;;;;;;;18.40;1.98;;;;;;;19.56;33.58;101307.81;4937998;29;20031;-79
2022/05/10 11:15:40;;;;;;;13.23;2.67;;;;;;;19.71;36.36;101306.13;4937687;29;20035;-81
2022/05/10 11:18:28;;;;;;;4.03;2.03;;;;;;;19.88;36.31;101296.09;4918672;29;20502;-80
2022/05/10 11:21:18;;;;;;;17.23;2.60;;;;;;;19.97;37.44;101292.34;4937707;29;20406;-81
2022/05/10 11:23:53;;;;;;;3.00;1.45;;;;;;;20.02;37.56;101292.72;4936859;29;20024;-81
2022/05/10 11:26:30;;;;;;;6.72;1.95;;;;;;;20.05;37.53;101276.84;4938092;29;20032;-80
2022/05/10 11:29:16;;;;;;;8.45;2.53;;;;;;;20.05;36.75;101285.03;4937636;29;20094;-80
2022/05/10 11:32:03;;;;;;;14.73;2.45;;;;;;;20.03;37.75;101278.88;4937842;29;20028;-80
2022/05/10 11:34:45;;;;;;;10.18;2.65;;;;;;;20.02;37.02;101277.19;4942460;29;20027;-80
2022/05/10 11:37:19;;;;;;;9.35;3.00;;;;;;;19.87;37.18;101273.41;4936978;29;20508;-80
2022/05/10 11:40:21;;;;;;;13.68;2.65;;;;;;;19.83;36.59;101287.56;4937397;29;20482;-79
2022/05/10 11:43:19;;;;;;;19.65;2.40;;;;;;;19.62;35.11;101284.44;4937419;29;20023;-80
2022/05/10 11:46:22;;;;;;;6.60;1.50;;;;;;;19.60;35.44;101281.03;4937061;29;20434;-82
2022/05/10 11:48:54;;;;;;;10.02;2.50;;;;;;;19.80;35.35;101277.84;4896706;29;20032;-80
2022/05/10 11:51:58;;;;;;;9.77;2.70;;;;;;;19.77;34.77;101271.84;4930837;29;20123;-81
2022/05/10 11:54:36;;;;;;;38.15;3.85;;;;;;;19.64;35.64;101280.53;4918337;29;20102;-81